• Join FlightAware (Why Join?)
  • Login
  • US Flag 
06:19AM EDT


 

Airport Tracker/Info


-or-


 

Live Flight TrackerFlight Track Log ✈ SKW4632 ✈ 25-Aug-2013 ✈ KMSO - KSLC

Flight Track Log - Related Links

Times and Time Zones

All times are in EDT time to prevent confusion due to time zone crossing. See the SKW4632 flight status page for this flight to view local times or setup timezone preferences in your user account.

Time Position Orientation Groundspeed Altitude Reporting Facility
EDT Latitude Longitude Course Direction KTS MPH feet Rate Location/Type
03:12PM 46.9569 -114.1642 198° South 189 217 5,100  Level Salt Lake Center
03:13PM 46.9989 -114.2356 311° West 225 259 7,500 2,340 Climbing Salt Lake Center
03:14PM 46.6748 -113.9982 180° South  Level Estimated
03:14PM 47.0453 -114.3133 311° West 235 270 9,900  Level Salt Lake Center
03:15PM 46.5994 -114.0497 205° Southwest  Level FlightAware Approximate
03:15PM 47.0306 -114.3908 254° West 224 258 12,000  Level Salt Lake Center
03:16PM 46.5191 -114.0180 180° South  Level Estimated
03:16PM 46.9583 -114.3933 181° South 247 284 13,400  Level Salt Lake Center
03:17PM 46.4401 -114.0561 198° South  Level FlightAware Approximate
03:17PM 46.8794 -114.3750 171° South 286 329 15,100  Level Salt Lake Center
03:18PM 46.7936 -114.3419 165° South 297 342 17,100 1,680 Climbing Salt Lake Center
03:19PM 46.7131 -114.3100 165° South 303 349 18,600 1,440 Climbing Salt Lake Center
03:20PM 46.6228 -114.2756 165° South 312 359 20,100 1,320 Climbing Salt Lake Center
03:21PM 46.5478 -114.2481 166° South 316 364 21,400 1,260 Climbing Salt Lake Center
03:22PM 46.4614 -114.2133 165° South 322 371 22,800 1,200 Climbing Salt Lake Center
03:23PM 46.3569 -114.1725 165° South 325 374 23,900 960 Climbing Salt Lake Center
03:24PM 46.2689 -114.1400 166° South 328 377 24,900 960 Climbing Salt Lake Center
03:25PM 46.1789 -114.1058 165° South 334 384 26,000 900 Climbing Salt Lake Center
03:26PM 46.0867 -114.0725 166° South 339 390 26,800 720 Climbing Salt Lake Center
03:27PM 45.9933 -114.0378 166° South 346 398 27,600 720 Climbing Salt Lake Center
03:28PM 45.9006 -114.0011 165° South 346 398 28,400 720 Climbing Salt Lake Center
03:29PM 45.7881 -113.9592 165° South 349 402 29,200 600 Climbing Salt Lake Center
03:30PM 45.6936 -113.9253 166° South 350 403 29,700 360 Climbing Salt Lake Center
03:31PM 45.5947 -113.8864 165° South 352 405 30,000 120 Climbing Salt Lake Center
03:32PM 45.5025 -113.8531 166° South 355 409 30,000  Level Salt Lake Center
03:33PM 45.3950 -113.8147 166° South 357 411 30,000  Level Salt Lake Center
03:35PM 45.3011 -113.7806 166° South 361 415 30,000  Level Salt Lake Center
03:36PM 45.1936 -113.7408 165° South 359 413 30,000  Level Salt Lake Center
03:37PM 45.1008 -113.7069 166° South 360 414 30,000  Level Salt Lake Center
03:38PM 44.9931 -113.6683 166° South 359 413 30,000  Level Salt Lake Center
03:39PM 44.9006 -113.6350 166° South 358 412 30,000  Level Salt Lake Center
03:40PM 44.7933 -113.5958 165° South 358 412 30,000  Level Salt Lake Center
03:41PM 44.7014 -113.5619 165° South 357 411 30,000  Level Salt Lake Center
03:42PM 44.5942 -113.5253 166° South 356 410 30,000  Level Salt Lake Center
03:43PM 44.5006 -113.4906 165° South 359 413 30,000  Level Salt Lake Center
03:44PM 44.3931 -113.4531 166° South 358 412 30,000  Level Salt Lake Center
03:45PM 44.3008 -113.4197 165° South 357 411 30,000  Level Salt Lake Center
03:46PM 44.1967 -113.3831 166° South 352 405 30,000  Level Salt Lake Center
03:47PM 44.1053 -113.3503 166° South 352 405 30,000  Level Salt Lake Center
03:48PM 44.0139 -113.3197 166° South 352 405 30,000  Level Salt Lake Center
03:49PM 43.9092 -113.2831 166° South 349 402 30,000  Level Salt Lake Center
03:50PM 43.8178 -113.2508 166° South 352 405 30,000  Level Salt Lake Center
03:51PM 43.7128 -113.2142 166° South 350 403 30,000  Level Salt Lake Center
03:52PM 43.6217 -113.1825 166° South 351 404 30,000  Level Salt Lake Center
03:53PM 43.5164 -113.1458 166° South 351 404 30,000  Level Salt Lake Center
03:54PM 43.4264 -113.1150 166° South 349 402 30,000  Level Salt Lake Center
03:55PM 43.3219 -113.0789 166° South 347 399 30,000  Level Salt Lake Center
03:56PM 43.2317 -113.0483 166° South 347 399 30,000  Level Salt Lake Center
03:57PM 43.1264 -113.0142 167° South 347 399 30,000  Level Salt Lake Center
03:58PM 43.0364 -112.9822 165° South 348 400 30,000  Level Salt Lake Center
03:59PM 42.9314 -112.9453 166° South 348 400 30,000  Level Salt Lake Center
04:00PM 42.8408 -112.9153 166° South 350 403 30,000  Level Salt Lake Center
04:01PM 42.7497 -112.8861 167° South 350 403 30,000  Level Salt Lake Center
04:02PM 42.6419 -112.8481 165° South 351 404 30,000  Level Salt Lake Center
04:03PM 42.5475 -112.8178 167° South 349 402 30,000  Level Salt Lake Center
04:04PM 42.4514 -112.7900 168° South 354 407 30,000  Level Salt Lake Center
04:05PM 42.3564 -112.7581 166° South 354 407 30,000  Level Salt Lake Center
04:07PM 42.2617 -112.7281 167° South 351 404 30,000  Level Salt Lake Center
04:08PM 42.1486 -112.6903 166° South 350 403 30,000 -660 Level Salt Lake Center
04:09PM 42.0539 -112.6586 166° South 351 404 28,700 -2,040 Descending Salt Lake Center
04:10PM 41.9592 -112.6269 166° South 353 406 25,900 -2,700 Descending Salt Lake Center
04:11PM 41.8614 -112.5964 167° South 359 413 23,200 -2,640 Descending Salt Lake Center
04:12PM 41.7664 -112.5664 167° South 355 409 20,500 -2,640 Descending Salt Lake Center
04:13PM 41.6717 -112.5358 166° South 352 405 17,800 -2,280 Descending Salt Lake Center
04:14PM 41.5689 -112.4964 164° South 347 399 15,900 -1,140 Descending Salt Lake Center
04:15PM 41.4981 -112.4514 155° Southeast 314 361 15,700 -480 Descending Salt Lake Center
04:16PM 41.4200 -112.3536 137° Southeast 345 397 14,900 -720 Descending Salt Lake Center
04:17PM 41.3533 -112.2561 132° Southeast 355 409 14,200 -1,440 Descending Salt Lake Center
04:18PM 41.2981 -112.1706 131° Southeast 348 400 12,300 -1,740 Descending Salt Lake Center
04:19PM 41.2328 -112.0786 133° Southeast 344 396 11,000 -840 Descending Salt Lake Center
04:20PM 41.1733 -112.0164 142° Southeast 294 338 10,700 -660 Descending Salt Lake Center
04:21PM 41.0853 -112.0064 175° South 278 320 9,700 -900 Descending Salt Lake Center
04:22PM 41.0131 -112.0000 176° South 254 292 8,800 -1,020 Descending Salt Lake Center
04:23PM 40.9544 -111.9972 178° South 211 243 7,700 -1,140 Descending Salt Lake Center
04:24PM 40.9053 -111.9883 172° South 195 224 6,600 -1,200 Descending Salt Lake Center
04:25PM 40.8592 -111.9842 176° South 165 190 5,400 -1,080 Descending Salt Lake Center
04:26PM 40.8239 -111.9792 174° South 132 152 4,500 -900 Descending Salt Lake Center